createdAt,value
2024-04-30T00:01:01.702Z,96270.25
2024-04-30T00:02:13.929Z,96277.31
2024-04-30T00:03:26.532Z,96279.28
2024-04-30T00:04:38.883Z,96270.97
2024-04-30T00:05:51.616Z,96272.19
2024-04-30T00:07:04.109Z,96280.94
2024-04-30T00:08:16.277Z,96273.09
2024-04-30T00:09:28.455Z,96280.16
2024-04-30T00:10:40.714Z,96268.00
2024-04-30T00:11:52.888Z,96273.59
2024-04-30T00:13:05.275Z,96270.19
2024-04-30T00:14:17.443Z,96268.50
2024-04-30T00:15:29.560Z,96275.34
2024-04-30T00:16:44.893Z,96281.91
2024-04-30T00:17:57.664Z,96268.50
2024-04-30T00:19:10.520Z,96263.19
2024-04-30T00:20:22.764Z,96269.53
2024-04-30T00:21:44.228Z,96268.31
2024-04-30T00:22:56.392Z,96263.69
2024-04-30T00:24:08.538Z,96270.25
2024-04-30T00:25:20.869Z,96265.41
2024-04-30T00:26:36.247Z,96262.75
2024-04-30T00:27:50.203Z,96263.75
2024-04-30T00:29:02.535Z,96266.47
2024-04-30T00:30:14.936Z,96270.81
2024-04-30T00:31:27.158Z,96267.13
2024-04-30T00:32:39.395Z,96271.03
2024-04-30T00:33:51.610Z,96268.81
2024-04-30T00:35:03.879Z,96257.13
2024-04-30T00:36:16.079Z,96254.38
2024-04-30T00:37:28.290Z,96264.84
2024-04-30T00:38:40.530Z,96262.19
2024-04-30T00:39:52.732Z,96266.13
2024-04-30T00:41:05.046Z,96256.81
2024-04-30T00:42:17.279Z,96256.34
2024-04-30T00:43:29.532Z,96249.78
2024-04-30T00:44:41.733Z,96258.59
2024-04-30T00:45:53.906Z,96245.59
2024-04-30T00:47:06.443Z,96256.13
2024-04-30T00:48:18.913Z,96247.38
2024-04-30T00:49:31.546Z,96251.34
2024-04-30T00:50:44.138Z,96252.31
2024-04-30T00:51:58.396Z,96257.94
2024-04-30T00:53:10.579Z,96253.31
2024-04-30T00:54:23.271Z,96251.16
2024-04-30T00:55:35.546Z,96254.28
2024-04-30T00:56:48.523Z,96251.88
2024-04-30T00:58:00.784Z,96249.88
2024-04-30T00:59:13.027Z,96244.69
2024-04-30T01:00:25.243Z,96238.56
2024-04-30T01:01:37.749Z,96247.63
2024-04-30T01:02:49.961Z,96244.50
2024-04-30T01:04:02.141Z,96238.63
2024-04-30T01:05:14.360Z,96241.75
2024-04-30T01:06:26.506Z,96238.84
2024-04-30T01:07:38.715Z,96234.00
2024-04-30T01:08:50.888Z,96235.69
2024-04-30T01:10:03.480Z,96232.78
2024-04-30T01:11:15.728Z,96236.19
2024-04-30T01:12:28.304Z,96234.63
2024-04-30T01:13:40.480Z,96240.47
2024-04-30T01:14:53.621Z,96242.63
2024-04-30T01:16:08.984Z,96240.47
2024-04-30T01:17:21.327Z,96235.75
2024-04-30T01:18:33.778Z,96241.34
2024-04-30T01:19:45.942Z,96237.97
2024-04-30T01:20:58.120Z,96234.59
2024-04-30T01:22:10.330Z,96237.44
2024-04-30T01:23:22.560Z,96239.41
2024-04-30T01:24:35.739Z,96235.81
2024-04-30T01:25:47.939Z,96230.72
2024-04-30T01:27:00.092Z,96230.25
2024-04-30T01:28:14.122Z,96225.13
2024-04-30T01:29:26.292Z,96236.84
2024-04-30T01:30:38.437Z,96232.22
2024-04-30T01:31:50.605Z,96224.25
2024-04-30T01:33:04.659Z,96229.34
2024-04-30T01:34:16.938Z,96228.63
2024-04-30T01:35:29.112Z,96235.84
2024-04-30T01:36:41.307Z,96234.56
2024-04-30T01:37:53.434Z,96229.50
2024-04-30T01:39:05.569Z,96228.53
2024-04-30T01:40:17.844Z,96231.03
2024-04-30T01:41:29.974Z,96232.63
2024-04-30T01:42:42.142Z,96227.28
2024-04-30T01:43:54.326Z,96225.56
2024-04-30T01:45:06.712Z,96226.19
2024-04-30T01:46:18.888Z,96223.53
2024-04-30T01:47:31.135Z,96228.91
2024-04-30T01:48:43.367Z,96221.69
2024-04-30T01:49:55.546Z,96220.47
2024-04-30T01:51:07.742Z,96231.16
2024-04-30T01:52:19.961Z,96220.00
2024-04-30T01:53:32.145Z,96218.75
2024-04-30T01:54:44.302Z,96212.94
2024-04-30T01:55:56.457Z,96214.84
2024-04-30T01:57:08.640Z,96215.84
2024-04-30T01:58:20.849Z,96206.06
2024-04-30T01:59:33.052Z,96199.00
2024-04-30T02:00:45.305Z,96198.69
2024-04-30T02:01:57.477Z,96201.13
2024-04-30T02:03:09.686Z,96201.69
2024-04-30T02:04:21.863Z,96207.19
2024-04-30T02:05:34.051Z,96199.69
2024-04-30T02:06:46.235Z,96201.72
2024-04-30T02:07:58.392Z,96205.31
2024-04-30T02:09:10.556Z,96203.06
2024-04-30T02:10:22.782Z,96208.59
2024-04-30T02:11:34.973Z,96208.25
2024-04-30T02:12:47.209Z,96209.75
2024-04-30T02:13:59.351Z,96201.91
2024-04-30T02:15:11.525Z,96205.03
2024-04-30T02:16:23.849Z,96201.13
2024-04-30T02:17:36.165Z,96203.59
2024-04-30T02:18:48.326Z,96204.78
2024-04-30T02:20:00.550Z,96197.31
2024-04-30T02:21:12.743Z,96201.47
2024-04-30T02:22:25.061Z,96198.34
2024-04-30T02:23:37.266Z,96193.97
2024-04-30T02:24:49.414Z,96180.81
2024-04-30T02:26:03.145Z,96177.41
2024-04-30T02:27:15.405Z,96176.19
2024-04-30T02:28:27.637Z,96180.56
2024-04-30T02:29:39.787Z,96176.69
2024-04-30T02:31:10.710Z,96176.69
2024-04-30T02:32:41.561Z,96174.78
2024-04-30T02:34:12.445Z,96178.91
2024-04-30T02:35:24.648Z,96171.16
2024-04-30T02:36:36.872Z,96173.56
2024-04-30T02:37:49.020Z,96175.03
2024-04-30T02:39:01.265Z,96183.28
2024-04-30T02:40:13.540Z,96182.78
2024-04-30T02:41:25.723Z,96181.97
2024-04-30T02:42:37.858Z,96184.84
2024-04-30T02:43:50.017Z,96187.00
2024-04-30T02:45:02.170Z,96179.06
2024-04-30T02:46:14.355Z,96179.03
2024-04-30T02:47:26.655Z,96174.19
2024-04-30T02:48:38.832Z,96174.47
2024-04-30T02:49:50.963Z,96183.69
2024-04-30T02:51:04.109Z,96180.78
2024-04-30T02:52:16.282Z,96176.94
2024-04-30T02:53:28.444Z,96181.06
2024-04-30T02:54:40.655Z,96172.78
2024-04-30T02:55:52.790Z,96178.13
2024-04-30T02:57:05.127Z,96178.81
2024-04-30T02:58:17.365Z,96168.66
2024-04-30T02:59:29.535Z,96180.06
2024-04-30T03:00:41.728Z,96181.13
2024-04-30T03:01:53.959Z,96183.28
2024-04-30T03:03:06.134Z,96190.31
2024-04-30T03:04:18.382Z,96171.84
2024-04-30T03:05:30.615Z,96172.09
2024-04-30T03:06:42.805Z,96179.34
2024-04-30T03:07:54.941Z,96186.41
2024-04-30T03:09:07.400Z,96186.47
2024-04-30T03:10:19.612Z,96180.13
2024-04-30T03:11:31.923Z,96183.25
2024-04-30T03:12:44.130Z,96184.75
2024-04-30T03:13:56.517Z,96189.88
2024-04-30T03:15:09.810Z,96195.88
2024-04-30T03:16:21.988Z,96196.84
2024-04-30T03:17:34.227Z,96198.03
2024-04-30T03:18:46.461Z,96197.78
2024-04-30T03:19:58.664Z,96192.72
2024-04-30T03:21:11.931Z,96187.13
2024-04-30T03:22:24.132Z,96192.69
2024-04-30T03:23:36.411Z,96192.44
2024-04-30T03:24:48.560Z,96197.78
2024-04-30T03:26:00.835Z,96198.31
2024-04-30T03:27:12.990Z,96190.03
2024-04-30T03:28:25.187Z,96190.03
2024-04-30T03:29:37.383Z,96185.41
2024-04-30T03:30:49.550Z,96184.72
2024-04-30T03:32:01.714Z,96181.13
2024-04-30T03:33:13.971Z,96187.66
2024-04-30T03:34:26.294Z,96192.31
2024-04-30T03:35:38.463Z,96198.09
2024-04-30T03:36:50.754Z,96192.00
2024-04-30T03:38:02.936Z,96193.97
2024-04-30T03:39:15.777Z,96193.50
2024-04-30T03:40:28.003Z,96199.56
2024-04-30T03:41:40.517Z,96203.94
2024-04-30T03:42:54.353Z,96199.06
2024-04-30T03:44:06.763Z,96205.41
2024-04-30T03:45:18.938Z,96200.06
2024-04-30T03:46:31.251Z,96192.53
2024-04-30T03:47:43.982Z,96189.81
2024-04-30T03:48:56.383Z,96195.44
2024-04-30T03:50:08.649Z,96194.47
2024-04-30T03:51:20.820Z,96190.81
2024-04-30T03:52:33.123Z,96189.81
2024-04-30T03:53:47.678Z,96203.47
2024-04-30T03:55:00.090Z,96208.06
2024-04-30T03:56:12.335Z,96203.19
2024-04-30T03:57:24.525Z,96211.44
2024-04-30T03:58:36.719Z,96207.78
2024-04-30T03:59:48.918Z,96205.56
2024-04-30T04:01:01.158Z,96205.31
2024-04-30T04:02:13.473Z,96207.81
2024-04-30T04:03:25.655Z,96205.66
2024-04-30T04:04:38.235Z,96209.50
2024-04-30T04:05:50.438Z,96215.38
2024-04-30T04:07:02.646Z,96209.03
2024-04-30T04:08:14.847Z,96210.72
2024-04-30T04:09:27.138Z,96211.66
2024-04-30T04:10:42.572Z,96203.13
2024-04-30T04:12:15.040Z,96220.63
2024-04-30T04:13:45.769Z,96214.34
2024-04-30T04:14:57.930Z,96221.91
2024-04-30T04:16:10.127Z,96224.81
2024-04-30T04:17:22.437Z,96221.41
2024-04-30T04:18:34.893Z,96217.28
2024-04-30T04:19:50.298Z,96219.00
2024-04-30T04:21:02.442Z,96215.13
2024-04-30T04:22:14.737Z,96218.03
2024-04-30T04:23:26.908Z,96214.66
2024-04-30T04:24:39.078Z,96212.94
2024-04-30T04:25:51.225Z,96210.25
2024-04-30T04:27:04.477Z,96217.06
2024-04-30T04:28:16.740Z,96222.38
2024-04-30T04:29:28.971Z,96219.69
2024-04-30T04:30:41.153Z,96224.06
2024-04-30T04:31:53.396Z,96218.53
2024-04-30T04:33:05.767Z,96222.66
2024-04-30T04:34:18.082Z,96222.91
2024-04-30T04:35:30.282Z,96220.22
2024-04-30T04:36:44.211Z,96218.75
2024-04-30T04:37:56.424Z,96219.47
2024-04-30T04:39:08.629Z,96216.28
2024-04-30T04:40:20.933Z,96217.75
2024-04-30T04:41:33.136Z,96211.50
2024-04-30T04:42:45.312Z,96214.38
2024-04-30T04:43:57.471Z,96218.16
2024-04-30T04:45:09.628Z,96218.41
2024-04-30T04:46:21.848Z,96215.66
2024-04-30T04:47:34.133Z,96218.91
2024-04-30T04:48:46.372Z,96220.16
2024-04-30T04:49:58.553Z,96220.66
2024-04-30T04:51:10.730Z,96226.03
2024-04-30T04:52:22.912Z,96217.53
2024-04-30T04:53:38.584Z,96215.47
2024-04-30T04:54:50.737Z,96213.25
2024-04-30T04:56:02.887Z,96213.22
2024-04-30T04:57:15.024Z,96211.56
2024-04-30T04:58:27.240Z,96210.84
2024-04-30T04:59:39.448Z,96210.38
2024-04-30T05:00:52.155Z,96210.88
2024-04-30T05:02:04.777Z,96216.72
2024-04-30T05:03:17.017Z,96214.06
2024-04-30T05:04:29.380Z,96208.88
2024-04-30T05:05:41.714Z,96205.38
2024-04-30T05:06:55.292Z,96204.50
2024-04-30T05:08:08.106Z,96210.81
2024-04-30T05:09:20.261Z,96209.03
2024-04-30T05:10:32.477Z,96208.94
2024-04-30T05:11:44.693Z,96210.84
2024-04-30T05:12:57.978Z,96211.66
2024-04-30T05:14:10.173Z,96217.00
2024-04-30T05:15:22.376Z,96219.94
2024-04-30T05:16:34.718Z,96216.16
2024-04-30T05:17:46.989Z,96220.34
2024-04-30T05:19:00.242Z,96224.69
2024-04-30T05:20:12.557Z,96223.03
2024-04-30T05:21:24.721Z,96219.41
2024-04-30T05:22:37.776Z,96219.31
2024-04-30T05:23:50.007Z,96214.97
2024-04-30T05:25:02.224Z,96216.69
2024-04-30T05:26:14.457Z,96209.59
2024-04-30T05:27:26.594Z,96206.94
2024-04-30T05:28:39.048Z,96203.50
2024-04-30T05:29:52.825Z,96209.06
2024-04-30T05:31:06.289Z,96216.50
2024-04-30T05:32:18.470Z,96211.41
2024-04-30T05:33:31.162Z,96212.28
2024-04-30T05:34:43.473Z,96208.06
2024-04-30T05:35:55.700Z,96209.56
2024-04-30T05:37:07.912Z,96208.28
2024-04-30T05:38:20.042Z,96199.50
2024-04-30T05:39:32.193Z,96204.88
2024-04-30T05:40:44.394Z,96204.47
2024-04-30T05:41:56.620Z,96198.03
2024-04-30T05:43:12.258Z,96196.38
2024-04-30T05:44:24.566Z,96197.16
2024-04-30T05:45:36.855Z,96200.38
2024-04-30T05:46:49.172Z,96205.00
2024-04-30T05:48:01.429Z,96202.81
2024-04-30T05:49:15.757Z,96206.97
2024-04-30T05:50:27.969Z,96206.38
2024-04-30T05:51:40.982Z,96213.81
2024-04-30T05:52:53.172Z,96213.25
2024-04-30T05:54:05.361Z,96200.16
2024-04-30T05:55:17.570Z,96197.91
2024-04-30T05:56:29.745Z,96207.13
2024-04-30T05:57:41.864Z,96202.91
2024-04-30T05:58:54.045Z,96202.84
2024-04-30T06:00:06.661Z,96200.66
2024-04-30T06:01:18.996Z,96206.53
2024-04-30T06:02:31.180Z,96203.19
2024-04-30T06:03:43.467Z,96205.16
2024-04-30T06:04:55.866Z,96214.06
2024-04-30T06:06:12.195Z,96209.00
2024-04-30T06:07:24.481Z,96212.75
2024-04-30T06:08:40.006Z,96215.25
2024-04-30T06:09:53.528Z,96205.13
2024-04-30T06:11:09.361Z,96207.00
2024-04-30T06:12:21.552Z,96202.28
2024-04-30T06:13:33.794Z,96207.41
2024-04-30T06:14:45.956Z,96205.28
2024-04-30T06:15:58.117Z,96205.66
2024-04-30T06:17:10.291Z,96208.22
2024-04-30T06:18:22.579Z,96209.91
2024-04-30T06:19:34.896Z,96208.69
2024-04-30T06:20:47.074Z,96208.13
2024-04-30T06:21:59.262Z,96206.25
2024-04-30T06:23:14.818Z,96201.22
2024-04-30T06:24:26.978Z,96208.53
2024-04-30T06:25:39.389Z,96212.06
2024-04-30T06:26:51.950Z,96201.16
2024-04-30T06:28:04.446Z,96210.69
2024-04-30T06:29:17.190Z,96214.03
2024-04-30T06:30:29.371Z,96214.59
2024-04-30T06:31:41.679Z,96210.81
2024-04-30T06:32:53.953Z,96210.59
2024-04-30T06:34:06.171Z,96209.03
2024-04-30T06:35:18.347Z,96211.13
2024-04-30T06:36:30.827Z,96214.44
2024-04-30T06:37:45.345Z,96204.28
2024-04-30T06:38:57.592Z,96204.22
2024-04-30T06:40:10.201Z,96210.31
2024-04-30T06:41:22.568Z,96203.44
2024-04-30T06:42:34.907Z,96206.19
2024-04-30T06:43:47.169Z,96206.63
2024-04-30T06:44:59.324Z,96212.78
2024-04-30T06:46:11.548Z,96203.72
2024-04-30T06:47:23.757Z,96205.97
2024-04-30T06:48:36.178Z,96214.53
2024-04-30T06:49:48.478Z,96211.16
2024-04-30T06:51:00.657Z,96196.72
2024-04-30T06:52:12.841Z,96205.66
2024-04-30T06:53:25.019Z,96210.31
2024-04-30T06:54:37.252Z,96200.34
2024-04-30T06:55:49.734Z,96188.75
2024-04-30T06:57:02.443Z,96197.59
2024-04-30T06:58:15.579Z,96188.75
2024-04-30T06:59:27.819Z,96202.09
2024-04-30T07:00:40.898Z,96188.19
2024-04-30T07:01:53.120Z,96195.84
2024-04-30T07:03:05.568Z,96199.47
2024-04-30T07:04:17.843Z,96201.84
2024-04-30T07:05:30.170Z,96197.72
2024-04-30T07:06:42.396Z,96195.84
2024-04-30T07:07:56.091Z,96198.34
2024-04-30T07:09:08.365Z,96197.97
2024-04-30T07:10:20.620Z,96199.81
2024-04-30T07:11:32.897Z,96201.69
2024-04-30T07:12:45.250Z,96200.56
2024-04-30T07:13:57.443Z,96199.19
2024-04-30T07:15:09.806Z,96199.22
2024-04-30T07:16:22.009Z,96198.56
2024-04-30T07:17:34.266Z,96200.84
2024-04-30T07:18:46.893Z,96193.16
2024-04-30T07:19:59.150Z,96192.31
2024-04-30T07:21:11.340Z,96192.75
2024-04-30T07:22:23.563Z,96189.47
2024-04-30T07:23:35.805Z,96186.97
2024-04-30T07:24:47.989Z,96182.00
2024-04-30T07:26:00.149Z,96194.94
2024-04-30T07:27:12.343Z,96189.53
2024-04-30T07:28:25.410Z,96196.03
2024-04-30T07:29:37.681Z,96196.38
2024-04-30T07:30:49.836Z,96199.03
2024-04-30T07:32:02.071Z,96193.03
2024-04-30T07:33:15.138Z,96198.13
2024-04-30T07:34:27.586Z,96191.78
2024-04-30T07:35:39.824Z,96192.94
2024-04-30T07:36:51.999Z,96195.34
2024-04-30T07:38:06.439Z,96185.75
2024-04-30T07:39:18.612Z,96189.50
2024-04-30T07:40:30.789Z,96196.81
2024-04-30T07:41:42.962Z,96191.69
2024-04-30T07:42:55.111Z,96187.88
2024-04-30T07:44:07.278Z,96189.03
2024-04-30T07:45:19.624Z,96187.97
2024-04-30T07:46:31.811Z,96189.34
2024-04-30T07:47:44.047Z,96183.81
2024-04-30T07:48:56.263Z,96185.84
2024-04-30T07:50:08.514Z,96194.59
2024-04-30T07:51:20.711Z,96193.66
2024-04-30T07:52:32.920Z,96190.88
2024-04-30T07:53:45.103Z,96192.75
2024-04-30T07:54:59.928Z,96196.44
2024-04-30T07:56:12.412Z,96200.81
2024-04-30T07:57:24.593Z,96192.69
2024-04-30T07:58:36.867Z,96198.25
2024-04-30T07:59:49.066Z,96189.25
2024-04-30T08:01:03.337Z,96198.25
2024-04-30T08:02:15.715Z,96193.41
2024-04-30T08:03:27.903Z,96191.63
2024-04-30T08:04:40.306Z,96193.78
2024-04-30T08:05:55.920Z,96185.56
2024-04-30T08:07:08.375Z,96187.69
2024-04-30T08:08:22.575Z,96184.69
2024-04-30T08:09:34.961Z,96192.97
2024-04-30T08:10:47.310Z,96179.84
2024-04-30T08:12:00.460Z,96186.44
2024-04-30T08:13:12.647Z,96186.81
2024-04-30T08:14:24.845Z,96189.56
2024-04-30T08:15:37.014Z,96185.72
2024-04-30T08:16:49.272Z,96183.41
2024-04-30T08:18:01.676Z,96196.78
2024-04-30T08:19:15.101Z,96190.03
2024-04-30T08:20:29.619Z,96193.56
2024-04-30T08:21:41.920Z,96193.22
2024-04-30T08:22:54.084Z,96194.34
2024-04-30T08:24:06.381Z,96183.75
2024-04-30T08:25:18.567Z,96185.56
2024-04-30T08:26:30.889Z,96178.69
2024-04-30T08:27:43.071Z,96172.59
2024-04-30T08:28:55.229Z,96170.00
2024-04-30T08:30:08.339Z,96169.69
2024-04-30T08:31:20.720Z,96171.16
2024-04-30T08:32:33.053Z,96176.75
2024-04-30T08:33:45.355Z,96169.34
2024-04-30T08:34:57.656Z,96186.13
2024-04-30T08:36:09.895Z,96182.16
2024-04-30T08:37:22.096Z,96180.88
2024-04-30T08:38:34.296Z,96179.28
2024-04-30T08:39:46.483Z,96188.84
2024-04-30T08:40:59.484Z,96183.06
2024-04-30T08:42:12.234Z,96182.88
2024-04-30T08:43:26.151Z,96188.09
2024-04-30T08:44:39.448Z,96193.16
2024-04-30T08:45:54.629Z,96195.31
2024-04-30T08:47:07.520Z,96190.63
2024-04-30T08:48:21.691Z,96188.28
2024-04-30T08:49:46.223Z,96189.50
2024-04-30T08:51:01.705Z,96192.19
2024-04-30T08:52:13.998Z,96188.59
2024-04-30T08:53:27.291Z,96194.34
2024-04-30T08:54:41.833Z,96192.56
2024-04-30T08:55:54.977Z,96189.84
2024-04-30T08:57:07.211Z,96184.06
2024-04-30T08:58:19.461Z,96174.88
2024-04-30T08:59:31.856Z,96173.06
2024-04-30T09:00:45.453Z,96178.09
2024-04-30T09:01:58.360Z,96178.25
2024-04-30T09:03:10.859Z,96175.28
2024-04-30T09:04:23.899Z,96177.00
2024-04-30T09:05:36.255Z,96181.53
2024-04-30T09:06:49.840Z,96178.97
2024-04-30T09:08:03.335Z,96183.88
2024-04-30T09:09:16.273Z,96178.97
2024-04-30T09:10:28.468Z,96183.69
2024-04-30T09:11:40.762Z,96187.47
2024-04-30T09:13:02.580Z,96180.69
2024-04-30T09:14:14.774Z,96181.63
2024-04-30T09:15:27.161Z,96176.91
2024-04-30T09:16:52.463Z,96181.44
2024-04-30T09:18:09.526Z,96174.59
2024-04-30T09:19:30.548Z,96175.31
2024-04-30T09:20:48.941Z,96166.47
2024-04-30T09:22:04.966Z,96171.84
2024-04-30T09:23:32.947Z,96165.94
2024-04-30T09:24:48.802Z,96164.09
2024-04-30T09:26:00.993Z,96163.72
2024-04-30T09:27:13.149Z,96170.44
2024-04-30T09:28:27.736Z,96162.50
2024-04-30T09:29:42.136Z,96163.22
2024-04-30T09:31:00.073Z,96155.47
2024-04-30T09:32:16.135Z,96167.19
2024-04-30T09:33:29.687Z,96157.63
2024-04-30T09:34:45.270Z,96156.56
2024-04-30T09:36:09.707Z,96148.41
2024-04-30T09:37:24.691Z,96154.75
2024-04-30T09:38:40.333Z,96159.06
2024-04-30T09:39:54.490Z,96161.94
2024-04-30T09:41:11.791Z,96153.56
2024-04-30T09:42:27.239Z,96152.38
2024-04-30T09:43:44.024Z,96146.97
2024-04-30T09:44:56.912Z,96154.25
2024-04-30T09:46:09.712Z,96150.38
2024-04-30T09:47:22.539Z,96156.78
2024-04-30T09:48:35.999Z,96157.50
2024-04-30T09:49:49.599Z,96156.16
2024-04-30T09:51:06.534Z,96151.59
2024-04-30T09:52:21.645Z,96144.09
2024-04-30T09:53:35.580Z,96146.81
2024-04-30T09:54:48.318Z,96150.03
2024-04-30T09:56:03.880Z,96147.00
2024-04-30T09:57:17.666Z,96132.75
2024-04-30T09:58:30.110Z,96128.84
2024-04-30T09:59:42.612Z,96127.91
2024-04-30T10:01:02.629Z,96134.81
2024-04-30T10:02:17.567Z,96142.09
2024-04-30T10:04:25.762Z,96127.94
2024-04-30T10:05:43.049Z,96144.91
2024-04-30T10:06:58.011Z,96135.56
2024-04-30T10:08:11.027Z,96131.41
2024-04-30T10:09:23.265Z,96133.25
2024-04-30T10:10:35.729Z,96138.66
2024-04-30T10:11:48.503Z,96136.78
2024-04-30T10:13:25.714Z,96136.63
2024-04-30T10:14:38.398Z,96134.38
2024-04-30T10:15:50.569Z,96139.53
2024-04-30T10:17:03.045Z,96134.53
2024-04-30T10:18:25.627Z,96140.25
2024-04-30T10:19:48.320Z,96137.66
2024-04-30T10:21:11.950Z,96140.72
2024-04-30T10:22:24.247Z,96140.19
2024-04-30T10:23:43.553Z,96131.47
2024-04-30T10:24:55.720Z,96132.97
2024-04-30T10:26:08.620Z,96136.75
2024-04-30T10:27:21.662Z,96132.53
2024-04-30T10:28:34.880Z,96132.22
2024-04-30T10:29:47.188Z,96126.03
2024-04-30T10:31:27.245Z,96128.25
2024-04-30T10:32:46.271Z,96131.88
2024-04-30T10:34:08.503Z,96131.19
2024-04-30T10:35:20.676Z,96126.03
2024-04-30T10:36:32.869Z,96129.28
2024-04-30T10:37:45.726Z,96137.03
2024-04-30T10:38:57.933Z,96135.38
2024-04-30T10:40:15.629Z,96141.16
2024-04-30T10:41:27.832Z,96132.16
2024-04-30T10:42:40.225Z,96137.38
2024-04-30T10:44:04.862Z,96133.19
2024-04-30T10:45:26.379Z,96134.59
2024-04-30T10:46:38.655Z,96138.91
2024-04-30T10:47:51.028Z,96130.19
2024-04-30T10:49:03.318Z,96132.44
2024-04-30T10:50:19.031Z,96129.41
2024-04-30T10:51:37.752Z,96131.88
2024-04-30T10:52:50.111Z,96132.41
2024-04-30T10:54:03.388Z,96134.41
2024-04-30T10:55:19.204Z,96136.16
2024-04-30T10:56:31.520Z,96135.78
2024-04-30T11:19:13.371Z,96126.03
2024-04-30T11:20:25.608Z,96110.03
2024-04-30T11:21:38.124Z,96121.34
2024-04-30T11:22:50.358Z,96113.75
2024-04-30T11:24:02.786Z,96121.72
2024-04-30T11:25:14.982Z,96120.59
2024-04-30T11:26:28.343Z,96117.06
2024-04-30T11:27:40.513Z,96118.94
2024-04-30T11:29:08.461Z,96119.31
2024-04-30T11:30:24.904Z,96120.75
2024-04-30T11:31:37.153Z,96126.28
2024-04-30T11:32:49.436Z,96118.16
2024-04-30T11:34:02.897Z,96122.16
2024-04-30T11:35:15.085Z,96108.72
2024-04-30T11:36:27.311Z,96117.72
2024-04-30T11:37:41.535Z,96115.38
2024-04-30T11:38:53.728Z,96114.13
2024-04-30T11:40:06.749Z,96122.72
2024-04-30T11:41:18.933Z,96119.75
2024-04-30T11:42:38.434Z,96116.91
2024-04-30T11:43:56.727Z,96121.19
2024-04-30T11:45:14.731Z,96123.75
2024-04-30T11:46:27.009Z,96125.38
2024-04-30T11:47:39.217Z,96113.34
2024-04-30T11:48:52.306Z,96122.59
2024-04-30T11:50:04.656Z,96123.13
2024-04-30T11:51:16.869Z,96118.91
2024-04-30T11:52:29.122Z,96112.78
2024-04-30T11:53:41.342Z,96123.13
2024-04-30T11:54:53.494Z,96110.50
2024-04-30T11:56:06.063Z,96126.56
2024-04-30T11:57:18.522Z,96120.00
2024-04-30T11:58:30.741Z,96108.28
2024-04-30T11:59:43.068Z,96112.06
2024-04-30T12:00:55.386Z,96112.28
2024-04-30T12:02:07.812Z,96116.66
2024-04-30T12:03:20.030Z,96128.25
2024-04-30T12:04:32.271Z,96117.44
2024-04-30T12:05:44.530Z,96121.97
2024-04-30T12:06:56.718Z,96121.44
2024-04-30T12:08:08.879Z,96124.28
2024-04-30T12:09:22.419Z,96113.97
2024-04-30T12:10:36.454Z,96116.72
2024-04-30T12:11:49.141Z,96113.66
2024-04-30T12:13:03.570Z,96116.72
2024-04-30T12:14:15.775Z,96116.53
2024-04-30T12:15:27.928Z,96100.28
2024-04-30T12:16:43.085Z,96115.41
2024-04-30T12:17:56.252Z,96107.44
2024-04-30T12:19:11.565Z,96104.28
2024-04-30T12:20:23.825Z,96096.16
2024-04-30T12:21:36.000Z,96110.31
2024-04-30T12:22:48.275Z,96116.56
2024-04-30T12:24:00.461Z,96109.78
2024-04-30T12:25:12.766Z,96106.28
2024-04-30T12:26:25.472Z,96108.06
2024-04-30T12:27:41.151Z,96102.75
2024-04-30T12:28:53.309Z,96109.91
2024-04-30T12:30:06.681Z,96104.75
2024-04-30T12:31:18.900Z,96100.22
2024-04-30T12:32:31.265Z,96092.66
2024-04-30T12:33:43.557Z,96100.22
2024-04-30T12:34:55.816Z,96101.00
2024-04-30T12:36:08.384Z,96100.84
2024-04-30T12:37:20.761Z,96097.91
2024-04-30T12:38:35.740Z,96097.88
2024-04-30T12:39:47.896Z,96092.84
2024-04-30T12:41:00.071Z,96082.94
2024-04-30T12:42:12.358Z,96097.00
2024-04-30T12:43:24.740Z,96097.19
2024-04-30T12:44:36.978Z,96086.94
2024-04-30T12:45:49.166Z,96095.63
2024-04-30T12:47:01.347Z,96093.50
2024-04-30T12:48:13.593Z,96081.22
2024-04-30T12:49:25.926Z,96091.09
2024-04-30T12:50:38.195Z,96081.38
2024-04-30T12:51:50.431Z,96087.66
2024-04-30T12:53:02.698Z,96082.94
2024-04-30T12:54:14.900Z,96091.66
2024-04-30T12:55:27.238Z,96082.63
2024-04-30T12:56:39.515Z,96076.84
2024-04-30T12:57:51.680Z,96086.56
2024-04-30T12:59:05.819Z,96086.22
2024-04-30T13:00:18.090Z,96080.59
2024-04-30T13:01:30.361Z,96079.69
2024-04-30T13:02:42.560Z,96072.09
2024-04-30T13:03:54.936Z,96079.09
2024-04-30T13:05:07.329Z,96071.72
2024-04-30T13:06:19.770Z,96079.47
2024-04-30T13:07:33.990Z,96071.09
2024-04-30T13:08:46.416Z,96071.25
2024-04-30T13:09:58.610Z,96066.44
2024-04-30T13:11:10.966Z,96062.03
2024-04-30T13:12:23.231Z,96067.38
2024-04-30T13:13:36.435Z,96064.72
2024-04-30T13:14:48.636Z,96059.97
2024-04-30T13:16:00.841Z,96055.75
2024-04-30T13:17:13.007Z,96041.31
2024-04-30T13:18:25.171Z,96057.44
2024-04-30T13:19:37.398Z,96051.28
2024-04-30T13:20:49.688Z,96049.31
2024-04-30T13:22:02.035Z,96052.31
2024-04-30T13:23:14.201Z,96046.56
2024-04-30T13:24:26.719Z,96056.72
2024-04-30T13:25:39.026Z,96043.22
2024-04-30T13:26:51.217Z,96041.88
2024-04-30T13:28:04.592Z,96044.09
2024-04-30T13:29:16.817Z,96048.72
2024-04-30T13:30:28.989Z,96049.44
2024-04-30T13:31:45.007Z,96046.38
2024-04-30T13:32:57.298Z,96052.53
2024-04-30T13:34:09.485Z,96043.13
2024-04-30T13:35:21.681Z,96040.53
2024-04-30T13:36:33.866Z,96053.78
2024-04-30T13:37:46.218Z,96054.28
2024-04-30T13:38:58.506Z,96048.88
2024-04-30T13:40:10.981Z,96055.88
2024-04-30T13:41:23.318Z,96051.09
2024-04-30T13:42:35.588Z,96051.13
2024-04-30T13:43:47.932Z,96045.19
2024-04-30T13:45:00.239Z,96045.56
2024-04-30T13:46:12.485Z,96050.59
2024-04-30T13:47:24.730Z,96047.13
2024-04-30T13:48:37.226Z,96039.78
2024-04-30T13:49:49.588Z,96042.19
2024-04-30T13:51:01.851Z,96046.19
2024-04-30T13:52:14.277Z,96042.56
2024-04-30T13:53:26.464Z,96051.41
2024-04-30T13:54:39.713Z,96037.69
2024-04-30T13:55:51.937Z,96053.72
2024-04-30T13:57:04.249Z,96048.28
2024-04-30T13:58:16.438Z,96048.47
2024-04-30T13:59:28.584Z,96049.78
2024-04-30T14:00:40.817Z,96052.88
2024-04-30T14:01:53.218Z,96048.53
2024-04-30T14:03:05.674Z,96039.16
2024-04-30T14:04:17.969Z,96040.41
2024-04-30T14:05:30.178Z,96042.38
2024-04-30T14:06:43.928Z,96042.22
2024-04-30T14:07:56.220Z,96042.06
2024-04-30T14:09:08.948Z,96031.63
2024-04-30T14:10:21.213Z,96023.50
2024-04-30T14:11:33.451Z,96032.69
2024-04-30T14:12:49.070Z,96037.75
2024-04-30T14:14:06.574Z,96034.13
2024-04-30T14:15:19.515Z,96037.88
2024-04-30T14:16:32.753Z,96043.28
2024-04-30T14:17:45.067Z,96038.44
2024-04-30T14:18:57.282Z,96031.41
2024-04-30T14:20:09.930Z,96039.16
2024-04-30T14:21:22.101Z,96039.53
2024-04-30T14:22:34.375Z,96030.72
2024-04-30T14:23:46.575Z,96037.22
2024-04-30T14:24:58.807Z,96044.47
2024-04-30T14:26:17.948Z,96041.34
2024-04-30T14:27:30.145Z,96044.41
2024-04-30T14:28:42.355Z,96035.84
2024-04-30T14:29:54.522Z,96045.59
2024-04-30T14:31:07.783Z,96039.72
2024-04-30T14:32:21.376Z,96039.34
2024-04-30T14:33:37.293Z,96040.06
2024-04-30T14:34:49.568Z,96034.31
2024-04-30T14:36:20.660Z,96035.94
2024-04-30T14:37:32.873Z,96045.81
2024-04-30T14:38:45.050Z,96041.47
2024-04-30T14:39:57.231Z,96035.72
2024-04-30T14:41:13.953Z,96041.13
2024-04-30T14:42:26.143Z,96033.19